Aviation Digital Data Service (ADDS)

Output produced by METARs form (2147 UTC 22 September 2020)
found at http://www.aviationweather.gov/metar/data/
 
METAR text: GUCY 221800Z 26006KT 9999 SCT015 29/24 Q1012 NOSIG
Conditions at: GUCY (CONAKRY/GBESSIA , GN) observed 1800 UTC 22 September 2020
Temperature: 29.0°C (84°F)
Dewpoint: 24.0°C (75°F) [RH = 74%]
Pressure (altimeter): 29.88 inches Hg (1012.0 mb)
Winds: from the W (260 degrees) at 7 MPH (6 knots; 3.1 m/s)
Visibility: 6 or more miles (10+ km)
Ceiling: at least 12,000 feet AGL
Clouds: scattered clouds at 1500 feet AGL
Weather: no significant weather observed at this time

METAR text: GUCY 221600Z 23010KT 9999 SCT015 FEW023TCU 30/25 Q1012 NOSIG
Conditions at: GUCY (CONAKRY/GBESSIA , GN) observed 1600 UTC 22 September 2020
Temperature: 30.0°C (86°F)
Dewpoint: 25.0°C (77°F) [RH = 75%]
Pressure (altimeter): 29.88 inches Hg (1012.0 mb)
Winds: from the SW (230 degrees) at 12 MPH (10 knots; 5.1 m/s)
Visibility: 6 or more miles (10+ km)
Ceiling: at least 12,000 feet AGL
Clouds: scattered clouds at 1500 feet AGL
few clouds at 2300 feet AGL
Weather: no significant weather observed at this time

METAR text: GUCY 221500Z 22010KT 9999 SCT015 30/25 Q1012 NOSIG
Conditions at: GUCY (CONAKRY/GBESSIA , GN) observed 1500 UTC 22 September 2020
Temperature: 30.0°C (86°F)
Dewpoint: 25.0°C (77°F) [RH = 75%]
Pressure (altimeter): 29.88 inches Hg (1012.0 mb)
Winds: from the SW (220 degrees) at 12 MPH (10 knots; 5.1 m/s)
Visibility: 6 or more miles (10+ km)
Ceiling: at least 12,000 feet AGL
Clouds: scattered clouds at 1500 feet AGL
Weather: no significant weather observed at this time

METAR text: GUCY 221400Z 18010KT 9999 BKN013 SCT100 30/25 Q1013 NOSIG
Conditions at: GUCY (CONAKRY/GBESSIA , GN) observed 1400 UTC 22 September 2020
Temperature: 30.0°C (86°F)
Dewpoint: 25.0°C (77°F) [RH = 75%]
Pressure (altimeter): 29.91 inches Hg (1013.0 mb)
Winds: from the S (180 degrees) at 12 MPH (10 knots; 5.1 m/s)
Visibility: 6 or more miles (10+ km)
Ceiling: 1300 feet AGL
Clouds: broken clouds at 1300 feet AGL
scattered clouds at 10000 feet AGL
Weather: no significant weather observed at this time

METAR text: GUCY 221300Z 18008KT 9999 BKN013 30/25 Q1014 NOSIG
Conditions at: GUCY (CONAKRY/GBESSIA , GN) observed 1300 UTC 22 September 2020
Temperature: 30.0°C (86°F)
Dewpoint: 25.0°C (77°F) [RH = 75%]
Pressure (altimeter): 29.94 inches Hg (1014.0 mb)
Winds: from the S (180 degrees) at 9 MPH (8 knots; 4.1 m/s)
Visibility: 6 or more miles (10+ km)
Ceiling: 1300 feet AGL
Clouds: broken clouds at 1300 feet AGL
Weather: no significant weather observed at this time

METAR text: GUCY 221200Z 18008KT 9999 BKN013 30/25 Q1015 NOSIG
Conditions at: GUCY (CONAKRY/GBESSIA , GN) observed 1200 UTC 22 September 2020
Temperature: 30.0°C (86°F)
Dewpoint: 25.0°C (77°F) [RH = 75%]
Pressure (altimeter): 29.97 inches Hg (1015.0 mb)
Winds: from the S (180 degrees) at 9 MPH (8 knots; 4.1 m/s)
Visibility: 6 or more miles (10+ km)
Ceiling: 1300 feet AGL
Clouds: broken clouds at 1300 feet AGL
Weather: no significant weather observed at this time

METAR text: GUCY 221100Z 18004KT 9999 BKN013 FEW023CB SCT100 29/26 Q1016 CB/S NOSIG
Conditions at: GUCY (CONAKRY/GBESSIA , GN) observed 1100 UTC 22 September 2020
Temperature: 29.0°C (84°F)
Dewpoint: 26.0°C (79°F) [RH = 84%]
Pressure (altimeter): 30.00 inches Hg (1016.0 mb)
Winds: from the S (180 degrees) at 5 MPH (4 knots; 2.1 m/s)
Visibility: 6 or more miles (10+ km)
Ceiling: 1300 feet AGL
Clouds: broken clouds at 1300 feet AGL
few clouds at 2300 feet AGL
scattered clouds at 10000 feet AGL
Weather: no significant weather observed at this time

METAR text: GUCY 221000Z 13006KT 9999 BKN013 FEW023CB SCT100 29/26 Q1016 CB/S NOSIG
Conditions at: GUCY (CONAKRY/GBESSIA , GN) observed 1000 UTC 22 September 2020
Temperature: 29.0°C (84°F)
Dewpoint: 26.0°C (79°F) [RH = 84%]
Pressure (altimeter): 30.00 inches Hg (1016.0 mb)
Winds: from the SE (130 degrees) at 7 MPH (6 knots; 3.1 m/s)
Visibility: 6 or more miles (10+ km)
Ceiling: 1300 feet AGL
Clouds: broken clouds at 1300 feet AGL
few clouds at 2300 feet AGL
scattered clouds at 10000 feet AGL
Weather: no significant weather observed at this time

METAR text: GUCY 220900Z 13006KT 9999 TS SCT015 FEW023CB SCT110 28/25 Q1015 CB/S NOSIG
Conditions at: GUCY (CONAKRY/GBESSIA , GN) observed 0900 UTC 22 September 2020
Temperature: 28.0°C (82°F)
Dewpoint: 25.0°C (77°F) [RH = 84%]
Pressure (altimeter): 29.97 inches Hg (1015.0 mb)
Winds: from the SE (130 degrees) at 7 MPH (6 knots; 3.1 m/s)
Visibility: 6 or more miles (10+ km)
Ceiling: at least 12,000 feet AGL
Clouds: scattered clouds at 1500 feet AGL
few clouds at 2300 feet AGL
scattered clouds at 11000 feet AGL
Weather: TS  (thunderstorm)

METAR text: GUCY 220800Z 09004KT 9999 SCT015 SCT110 26/24 Q1015 NOSIG
Conditions at: GUCY (CONAKRY/GBESSIA , GN) observed 0800 UTC 22 September 2020
Temperature: 26.0°C (79°F)
Dewpoint: 24.0°C (75°F) [RH = 89%]
Pressure (altimeter): 29.97 inches Hg (1015.0 mb)
Winds: from the E (90 degrees) at 5 MPH (4 knots; 2.1 m/s)
Visibility: 6 or more miles (10+ km)
Ceiling: at least 12,000 feet AGL
Clouds: scattered clouds at 1500 feet AGL
scattered clouds at 11000 feet AGL
Weather: no significant weather observed at this time

METAR text: GUCY 220700Z VRB02KT 9999 BKN013 BKN110 25/24 Q1014 NOSIG
Conditions at: GUCY (CONAKRY/GBESSIA , GN) observed 0700 UTC 22 September 2020
Temperature: 25.0°C (77°F)
Dewpoint: 24.0°C (75°F) [RH = 94%]
Pressure (altimeter): 29.94 inches Hg (1014.0 mb)
Winds: variable direction winds at 2 MPH (2 knots; 1.0 m/s)
Visibility: 6 or more miles (10+ km)
Ceiling: 1300 feet AGL
Clouds: broken clouds at 1300 feet AGL
broken clouds at 11000 feet AGL
Weather: no significant weather observed at this time

METAR text: GUCY 220600Z 09004KT 9999 BKN013 SCT110 25/25 Q1013 NOSIG
Conditions at: GUCY (CONAKRY/GBESSIA , GN) observed 0600 UTC 22 September 2020
Temperature: 25.0°C (77°F)
Dewpoint: 25.0°C (77°F) [RH = 100%]
Pressure (altimeter): 29.91 inches Hg (1013.0 mb)
Winds: from the E (90 degrees) at 5 MPH (4 knots; 2.1 m/s)
Visibility: 6 or more miles (10+ km)
Ceiling: 1300 feet AGL
Clouds: broken clouds at 1300 feet AGL
scattered clouds at 11000 feet AGL
Weather: no significant weather observed at this time

METAR text: GUCY 220000Z 00000KT 9999 FEW015 24/24 Q1013 NOSIG
Conditions at: GUCY (CONAKRY/GBESSIA , GN) observed 0000 UTC 22 September 2020
Temperature: 24.0°C (75°F)
Dewpoint: 24.0°C (75°F) [RH = 100%]
Pressure (altimeter): 29.91 inches Hg (1013.0 mb)
Winds: calm
Visibility: 6 or more miles (10+ km)
Ceiling: at least 12,000 feet AGL
Clouds: few clouds at 1500 feet AGL
Weather: no significant weather observed at this time

METAR text: GUCY 212300Z 00000KT 9999 FEW015 SCT110 25/24 Q1013 NOSIG
Conditions at: GUCY (CONAKRY/GBESSIA , GN) observed 2300 UTC 21 September 2020
Temperature: 25.0°C (77°F)
Dewpoint: 24.0°C (75°F) [RH = 94%]
Pressure (altimeter): 29.91 inches Hg (1013.0 mb)
Winds: calm
Visibility: 6 or more miles (10+ km)
Ceiling: at least 12,000 feet AGL
Clouds: few clouds at 1500 feet AGL
scattered clouds at 11000 feet AGL
Weather: no significant weather observed at this time

METAR text: GUCY 212200Z 00000KT 9999 FEW013 SCT100 25/24 Q1013 NOSIG
Conditions at: GUCY (CONAKRY/GBESSIA , GN) observed 2200 UTC 21 September 2020
Temperature: 25.0°C (77°F)
Dewpoint: 24.0°C (75°F) [RH = 94%]
Pressure (altimeter): 29.91 inches Hg (1013.0 mb)
Winds: calm
Visibility: 6 or more miles (10+ km)
Ceiling: at least 12,000 feet AGL
Clouds: few clouds at 1300 feet AGL
scattered clouds at 10000 feet AGL
Weather: no significant weather observed at this time

METAR text: GUCY 212100Z 00000KT 9999 SCT013 FEW023CB BKN100 25/24 Q1013 CB/SW/S NOSIG
Conditions at: GUCY (CONAKRY/GBESSIA , GN) observed 2100 UTC 21 September 2020
Temperature: 25.0°C (77°F)
Dewpoint: 24.0°C (75°F) [RH = 94%]
Pressure (altimeter): 29.91 inches Hg (1013.0 mb)
Winds: calm
Visibility: 6 or more miles (10+ km)
Ceiling: 10000 feet AGL
Clouds: scattered clouds at 1300 feet AGL
few clouds at 2300 feet AGL
broken clouds at 10000 feet AGL
Weather: no significant weather observed at this time

METAR text: GUCY 212000Z 00000KT 9999 BKN013 FEW023CB BKN100 26/24 Q1013 CB/SW/W NOSIG
Conditions at: GUCY (CONAKRY/GBESSIA , GN) observed 2000 UTC 21 September 2020
Temperature: 26.0°C (79°F)
Dewpoint: 24.0°C (75°F) [RH = 89%]
Pressure (altimeter): 29.91 inches Hg (1013.0 mb)
Winds: calm
Visibility: 6 or more miles (10+ km)
Ceiling: 1300 feet AGL
Clouds: broken clouds at 1300 feet AGL
few clouds at 2300 feet AGL
broken clouds at 10000 feet AGL
Weather: no significant weather observed at this time

METAR text: GUCY 211900Z 00000KT 9999 BKN013 FEW023CB BKN100 27/24 Q1013 CB W/SW NOSIG
Conditions at: GUCY (CONAKRY/GBESSIA , GN) observed 1900 UTC 21 September 2020
Temperature: 27.0°C (81°F)
Dewpoint: 24.0°C (75°F) [RH = 84%]
Pressure (altimeter): 29.91 inches Hg (1013.0 mb)
Winds: calm
Visibility: 6 or more miles (10+ km)
Ceiling: 1300 feet AGL
Clouds: broken clouds at 1300 feet AGL
few clouds at 2300 feet AGL
broken clouds at 10000 feet AGL
Weather: no significant weather observed at this time

METAR text: GUCY 211800Z 00000KT 9999 BKN013 BKN100 27/24 Q1012 NOSIG
Conditions at: GUCY (CONAKRY/GBESSIA , GN) observed 1800 UTC 21 September 2020
Temperature: 27.0°C (81°F)
Dewpoint: 24.0°C (75°F) [RH = 84%]
Pressure (altimeter): 29.88 inches Hg (1012.0 mb)
Winds: calm
Visibility: 6 or more miles (10+ km)
Ceiling: 1300 feet AGL
Clouds: broken clouds at 1300 feet AGL
broken clouds at 10000 feet AGL
Weather: no significant weather observed at this time

METAR text: GUCY 211700Z 23004KT 9999 BKN013 BKN100 28/24 Q1012 NOSIG
Conditions at: GUCY (CONAKRY/GBESSIA , GN) observed 1700 UTC 21 September 2020
Temperature: 28.0°C (82°F)
Dewpoint: 24.0°C (75°F) [RH = 79%]
Pressure (altimeter): 29.88 inches Hg (1012.0 mb)
Winds: from the SW (230 degrees) at 5 MPH (4 knots; 2.1 m/s)
Visibility: 6 or more miles (10+ km)
Ceiling: 1300 feet AGL
Clouds: broken clouds at 1300 feet AGL
broken clouds at 10000 feet AGL
Weather: no significant weather observed at this time

METAR text: GUCY 211600Z 32004KT 9999 BKN013 BKN100 29/24 Q1012 NOSIG
Conditions at: GUCY (CONAKRY/GBESSIA , GN) observed 1600 UTC 21 September 2020
Temperature: 29.0°C (84°F)
Dewpoint: 24.0°C (75°F) [RH = 74%]
Pressure (altimeter): 29.88 inches Hg (1012.0 mb)
Winds: from the NW (320 degrees) at 5 MPH (4 knots; 2.1 m/s)
Visibility: 6 or more miles (10+ km)
Ceiling: 1300 feet AGL
Clouds: broken clouds at 1300 feet AGL
broken clouds at 10000 feet AGL
Weather: no significant weather observed at this time

METAR text: GUCY 211500Z 00000KT 9999 BKN013 BKN100 29/24 Q1012 NOSIG
Conditions at: GUCY (CONAKRY/GBESSIA , GN) observed 1500 UTC 21 September 2020
Temperature: 29.0°C (84°F)
Dewpoint: 24.0°C (75°F) [RH = 74%]
Pressure (altimeter): 29.88 inches Hg (1012.0 mb)
Winds: calm
Visibility: 6 or more miles (10+ km)
Ceiling: 1300 feet AGL
Clouds: broken clouds at 1300 feet AGL
broken clouds at 10000 feet AGL
Weather: no significant weather observed at this time

METAR text: GUCY 211400Z VRB02KT 9999 SCT013 BKN100 28/23 Q1013 NOSIG
Conditions at: GUCY (CONAKRY/GBESSIA , GN) observed 1400 UTC 21 September 2020
Temperature: 28.0°C (82°F)
Dewpoint: 23.0°C (73°F) [RH = 74%]
Pressure (altimeter): 29.91 inches Hg (1013.0 mb)
Winds: variable direction winds at 2 MPH (2 knots; 1.0 m/s)
Visibility: 6 or more miles (10+ km)
Ceiling: 10000 feet AGL
Clouds: scattered clouds at 1300 feet AGL
broken clouds at 10000 feet AGL
Weather: no significant weather observed at this time

METAR text: GUCY 211300Z 08006KT 9999 SCT013 FEW023CB BKN100 27/23 Q1013 CB/W NOSIG
Conditions at: GUCY (CONAKRY/GBESSIA , GN) observed 1300 UTC 21 September 2020
Temperature: 27.0°C (81°F)
Dewpoint: 23.0°C (73°F) [RH = 79%]
Pressure (altimeter): 29.91 inches Hg (1013.0 mb)
Winds: from the E (80 degrees) at 7 MPH (6 knots; 3.1 m/s)
Visibility: 6 or more miles (10+ km)
Ceiling: 10000 feet AGL
Clouds: scattered clouds at 1300 feet AGL
few clouds at 2300 feet AGL
broken clouds at 10000 feet AGL
Weather: no significant weather observed at this time

METAR text: GUCY 211200Z 09008KT 9999 BKN013 FEW023CB BKN100 27/23 Q1013 CB/SW-W RERA NOSIG
Conditions at: GUCY (CONAKRY/GBESSIA , GN) observed 1200 UTC 21 September 2020
Temperature: 27.0°C (81°F)
Dewpoint: 23.0°C (73°F) [RH = 79%]
Pressure (altimeter): 29.91 inches Hg (1013.0 mb)
Winds: from the E (90 degrees) at 9 MPH (8 knots; 4.1 m/s)
Visibility: 6 or more miles (10+ km)
Ceiling: 1300 feet AGL
Clouds: broken clouds at 1300 feet AGL
few clouds at 2300 feet AGL
broken clouds at 10000 feet AGL
Weather: no significant weather observed at this time

METAR text: GUCY 211100Z 07006KT 8000 -RA BKN013 FEW023CB BKN100 24/23 Q1014 CB/SW-W RETS NOSIG
Conditions at: GUCY (CONAKRY/GBESSIA , GN) observed 1100 UTC 21 September 2020
Temperature: 24.0°C (75°F)
Dewpoint: 23.0°C (73°F) [RH = 94%]
Pressure (altimeter): 29.94 inches Hg (1014.0 mb)
Winds: from the ENE (70 degrees) at 7 MPH (6 knots; 3.1 m/s)
Visibility: 5 miles ( 8 km)
Ceiling: 1300 feet AGL
Clouds: broken clouds at 1300 feet AGL
few clouds at 2300 feet AGL
broken clouds at 10000 feet AGL
Weather: -RA  (light rain)

METAR text: GUCY 211000Z 09006KT 8000 -TSRA BKN013 FEW023CB BKN100 24/23 Q1015 CB/SW NOSIG
Conditions at: GUCY (CONAKRY/GBESSIA , GN) observed 1000 UTC 21 September 2020
Temperature: 24.0°C (75°F)
Dewpoint: 23.0°C (73°F) [RH = 94%]
Pressure (altimeter): 29.97 inches Hg (1015.0 mb)
Winds: from the E (90 degrees) at 7 MPH (6 knots; 3.1 m/s)
Visibility: 5 miles ( 8 km)
Ceiling: 1300 feet AGL
Clouds: broken clouds at 1300 feet AGL
few clouds at 2300 feet AGL
broken clouds at 10000 feet AGL
Weather: -TSRA  (light rain associated with thunderstorm(s))

Forecast for: GUCY (CONAKRY/GBESSIA , GN)
Text: TAF GUCY 221700Z 2218/2324 24008KT 9999 SCT015 SCT100
Forecast period: 1800 UTC 22 September 2020 to 0000 UTC 24 September 2020
Forecast type: FROM: standard forecast or significant change
Winds: from the WSW (240 degrees) at 9 MPH (8 knots; 4.1 m/s)
Visibility: 6 or more miles (10+ km)
Ceiling: at least 12,000 feet AGL
Clouds: scattered clouds at 1500 feet AGL
scattered clouds at 10000 feet AGL
Weather: no significant weather forecast for this period
Text: PROB30
Forecast period: 0200 to 0700 UTC 23 September 2020
Forecast type: TEMPORARY: The following changes expected for less than half the time period
Winds: from the SE (140 degrees) at 14 MPH (12 knots; 6.2 m/s)
Visibility: 4 miles (6 km)
Ceiling: 1200 feet AGL
Clouds: broken clouds at 1200 feet AGL
few clouds at 2300 feet AGL
broken clouds at 11000 feet AGL
Weather: -TSRA  (light rain associated with thunderstorm(s))